Time,TemperatureF,DewpointF,PressureIn,WindDirection,WindDirectionDegrees,WindSpeedMPH,WindSpeedGustMPH,Humidity,HourlyPrecipIn,Conditions,Clouds,dailyrainin,SolarRadiationWatts/m^2,SoftwareType,DateUTC
2013-03-02 01:00:00,15.0,9.0,-100.00,SE,135,4.0,-999.0,75,-99.99,,,-99.99,0.000000,,2013-03-02 06:00:00,
2013-03-02 01:42:00,15.0,9.0,-100.00,SE,135,4.0,-999.0,75,-99.99,,,-99.99,0.000000,,2013-03-02 06:42:00,
2013-03-02 01:52:00,15.0,9.0,-100.00,SE,135,4.0,-999.0,75,-99.99,,,-99.99,0.000000,,2013-03-02 06:52:00,
2013-03-02 02:00:00,14.0,8.0,-100.00,SSE,157,4.0,-999.0,75,-99.99,,,-99.99,0.000000,,2013-03-02 07:00:00,
2013-03-02 02:32:00,14.0,8.0,-100.00,SSE,157,4.0,-999.0,75,-99.99,,,-99.99,0.000000,,2013-03-02 07:32:00,
2013-03-02 02:42:00,14.0,8.0,-100.00,SSE,157,4.0,-999.0,75,-99.99,,,-99.99,0.000000,,2013-03-02 07:42:00,
2013-03-02 02:52:00,14.0,8.0,-100.00,SSE,157,4.0,-999.0,75,-99.99,,,-99.99,0.000000,,2013-03-02 07:52:00,
2013-03-02 03:00:00,14.0,8.0,-100.00,SW,225,3.0,-999.0,76,-99.99,,,-99.99,0.000000,,2013-03-02 08:00:00,
2013-03-02 03:43:00,14.0,8.0,-100.00,SW,225,3.0,-999.0,76,-99.99,,,-99.99,0.000000,,2013-03-02 08:43:00,
2013-03-02 03:52:00,14.0,8.0,-100.00,SW,225,3.0,-999.0,76,-99.99,,,-99.99,0.000000,,2013-03-02 08:52:00,
2013-03-02 04:00:00,12.0,7.0,-100.00,NW,315,3.0,-999.0,80,-99.99,,,-99.99,0.000000,,2013-03-02 09:00:00,
2013-03-02 04:42:00,12.0,7.0,-100.00,NW,315,3.0,-999.0,80,-99.99,,,-99.99,0.000000,,2013-03-02 09:42:00,
2013-03-02 04:52:00,12.0,7.0,-100.00,NW,315,3.0,-999.0,80,-99.99,,,-99.99,0.000000,,2013-03-02 09:52:00,
2013-03-02 05:00:00,11.0,7.0,-100.00,NW,315,2.0,-999.0,84,-99.99,,,-99.99,0.000000,,2013-03-02 10:00:00,
2013-03-02 05:43:00,11.0,7.0,-100.00,NW,315,2.0,-999.0,84,-99.99,,,-99.99,0.000000,,2013-03-02 10:43:00,
2013-03-02 05:52:00,11.0,7.0,-100.00,NW,315,2.0,-999.0,84,-99.99,,,-99.99,0.000000,,2013-03-02 10:52:00,
2013-03-02 06:00:00,10.0,7.0,-100.00,WNW,292,3.0,-999.0,87,-99.99,,,-99.99,0.000000,,2013-03-02 11:00:00,
2013-03-02 06:42:00,10.0,7.0,-100.00,WNW,292,3.0,-999.0,87,-99.99,,,-99.99,0.000000,,2013-03-02 11:42:00,
2013-03-02 06:52:00,10.0,7.0,-100.00,WNW,292,3.0,-999.0,87,-99.99,,,-99.99,0.000000,,2013-03-02 11:52:00,
2013-03-02 08:00:00,16.0,12.0,-100.00,SE,135,4.0,-999.0,83,-99.99,,,-99.99,16.240000,,2013-03-02 13:00:00,
2013-03-02 08:42:00,16.0,12.0,-100.00,SE,135,4.0,-999.0,83,-99.99,,,-99.99,16.240000,,2013-03-02 13:42:00,
2013-03-02 08:52:00,16.0,12.0,-100.00,SE,135,4.0,-999.0,83,-99.99,,,-99.99,16.240000,,2013-03-02 13:52:00,
2013-03-02 11:00:00,24.0,13.0,-100.00,ESE,112,8.0,-999.0,62,-99.99,,,-99.99,352.640015,,2013-03-02 16:00:00,
2013-03-02 11:42:00,24.0,13.0,-100.00,ESE,112,8.0,-999.0,62,-99.99,,,-99.99,352.640015,,2013-03-02 16:42:00,
2013-03-02 11:52:00,24.0,13.0,-100.00,ESE,112,8.0,-999.0,62,-99.99,,,-99.99,352.640015,,2013-03-02 16:52:00,
2013-03-02 13:00:00,28.0,13.0,-100.00,SSE,157,7.0,-999.0,52,-99.99,,,-99.99,583.479980,,2013-03-02 18:00:00,
2013-03-02 13:32:00,28.0,13.0,-100.00,SSE,157,7.0,-999.0,52,-99.99,,,-99.99,583.479980,,2013-03-02 18:32:00,
2013-03-02 13:42:00,28.0,13.0,-100.00,SSE,157,7.0,-999.0,52,-99.99,,,-99.99,583.479980,,2013-03-02 18:42:00,
2013-03-02 13:52:00,28.0,13.0,-100.00,SSE,157,7.0,-999.0,52,-99.99,,,-99.99,583.479980,,2013-03-02 18:52:00,
2013-03-02 14:00:00,28.0,12.0,-100.00,SE,135,8.0,-999.0,49,-99.99,,,-99.99,577.679993,,2013-03-02 19:00:00,
2013-03-02 14:42:00,28.0,12.0,-100.00,SE,135,8.0,-999.0,49,-99.99,,,-99.99,577.679993,,2013-03-02 19:42:00,
2013-03-02 14:52:00,28.0,12.0,-100.00,SE,135,8.0,-999.0,49,-99.99,,,-99.99,577.679993,,2013-03-02 19:52:00,
2013-03-02 15:00:00,29.0,12.0,-100.00,SSE,157,7.0,-999.0,47,-99.99,,,-99.99,532.440002,,2013-03-02 20:00:00,
2013-03-02 15:42:00,29.0,12.0,-100.00,SSE,157,7.0,-999.0,47,-99.99,,,-99.99,532.440002,,2013-03-02 20:42:00,
2013-03-02 15:53:00,29.0,12.0,-100.00,SSE,157,7.0,-999.0,47,-99.99,,,-99.99,532.440002,,2013-03-02 20:53:00,
2013-03-02 16:00:00,28.0,12.0,-100.00,South,180,8.0,-999.0,49,-99.99,,,-99.99,447.760010,,2013-03-02 21:00:00,
2013-03-02 16:42:00,28.0,12.0,-100.00,South,180,8.0,-999.0,49,-99.99,,,-99.99,447.760010,,2013-03-02 21:42:00,
2013-03-02 16:52:00,28.0,12.0,-100.00,South,180,8.0,-999.0,49,-99.99,,,-99.99,447.760010,,2013-03-02 21:52:00,
2013-03-02 17:00:00,27.0,10.0,-100.00,South,180,8.0,-999.0,49,-99.99,,,-99.99,305.079987,,2013-03-02 22:00:00,
2013-03-02 17:42:00,27.0,10.0,-100.00,South,180,8.0,-999.0,49,-99.99,,,-99.99,305.079987,,2013-03-02 22:42:00,
2013-03-02 17:52:00,27.0,10.0,-100.00,South,180,8.0,-999.0,49,-99.99,,,-99.99,305.079987,,2013-03-02 22:52:00,
2013-03-02 18:00:00,24.0,10.0,-100.00,SSE,157,7.0,-999.0,54,-99.99,,,-99.99,112.519997,,2013-03-02 23:00:00,
2013-03-02 18:42:00,24.0,10.0,-100.00,SSE,157,7.0,-999.0,54,-99.99,,,-99.99,112.519997,,2013-03-02 23:42:00,
2013-03-02 18:52:00,24.0,10.0,-100.00,SSE,157,7.0,-999.0,54,-99.99,,,-99.99,112.519997,,2013-03-02 23:52:00,
2013-03-02 19:00:00,20.0,9.0,-100.00,SE,135,6.0,-999.0,62,-99.99,,,-99.99,9.280000,,2013-03-03 00:00:00,
2013-03-02 19:42:00,20.0,9.0,-100.00,SE,135,6.0,-999.0,62,-99.99,,,-99.99,9.280000,,2013-03-03 00:42:00,
2013-03-02 19:52:00,20.0,9.0,-100.00,SE,135,6.0,-999.0,62,-99.99,,,-99.99,9.280000,,2013-03-03 00:52:00,
2013-03-02 20:00:00,16.0,8.0,-100.00,SSE,157,5.0,-999.0,67,-99.99,,,-99.99,0.000000,,2013-03-03 01:00:00,
2013-03-02 20:42:00,16.0,8.0,-100.00,SSE,157,5.0,-999.0,67,-99.99,,,-99.99,0.000000,,2013-03-03 01:42:00,
2013-03-02 20:52:00,16.0,8.0,-100.00,SSE,157,5.0,-999.0,67,-99.99,,,-99.99,0.000000,,2013-03-03 01:52:00,
2013-03-02 21:00:00,15.0,7.0,-100.00,NW,315,5.0,-999.0,69,-99.99,,,-99.99,0.000000,,2013-03-03 02:00:00,
2013-03-02 21:42:00,15.0,7.0,-100.00,NW,315,5.0,-999.0,69,-99.99,,,-99.99,0.000000,,2013-03-03 02:42:00,
2013-03-02 21:52:00,15.0,7.0,-100.00,NW,315,5.0,-999.0,69,-99.99,,,-99.99,0.000000,,2013-03-03 02:52:00,
2013-03-02 22:00:00,14.0,6.0,-100.00,NW,315,5.0,-999.0,69,-99.99,,,-99.99,0.000000,,2013-03-03 03:00:00,
2013-03-02 22:42:00,14.0,6.0,-100.00,NW,315,5.0,-999.0,69,-99.99,,,-99.99,0.000000,,2013-03-03 03:42:00,
2013-03-02 22:52:00,14.0,6.0,-100.00,NW,315,5.0,-999.0,69,-99.99,,,-99.99,0.000000,,2013-03-03 03:52:00,
2013-03-02 23:00:00,12.0,5.0,-100.00,NW,315,3.0,-999.0,72,-99.99,,,-99.99,0.000000,,2013-03-03 04:00:00,
2013-03-02 23:42:00,12.0,5.0,-100.00,NW,315,3.0,-999.0,72,-99.99,,,-99.99,0.000000,,2013-03-03 04:42:00,
2013-03-02 23:52:00,12.0,5.0,-100.00,NW,315,3.0,-999.0,72,-99.99,,,-99.99,0.000000,,2013-03-03 04:52:00,